sensor_id;sensor_type;location;lat;lon;timestamp;pressure;altitude;pressure_sealevel;temperature;humidity
71917;BME280;59793;46.506;6.674;2023-07-09T00:01:04;97500.84;;;24.34;52.99
71917;BME280;59793;46.506;6.674;2023-07-09T00:03:30;97489.22;;;24.38;52.51
71917;BME280;59793;46.506;6.674;2023-07-09T00:05:55;97493.78;;;24.24;52.59
71917;BME280;59793;46.506;6.674;2023-07-09T00:08:28;97483.00;;;24.08;53.42
71917;BME280;59793;46.506;6.674;2023-07-09T00:10:54;97488.88;;;23.87;53.87
71917;BME280;59793;46.506;6.674;2023-07-09T00:13:20;97488.88;;;23.67;54.39
71917;BME280;59793;46.506;6.674;2023-07-09T00:15:45;97486.88;;;23.71;54.19
71917;BME280;59793;46.506;6.674;2023-07-09T00:18:10;97508.59;;;23.60;54.15
71917;BME280;59793;46.506;6.674;2023-07-09T00:20:36;97506.00;;;23.36;54.63
71917;BME280;59793;46.506;6.674;2023-07-09T00:23:01;97506.09;;;23.33;54.78
71917;BME280;59793;46.506;6.674;2023-07-09T00:25:30;97510.28;;;23.34;54.87
71917;BME280;59793;46.506;6.674;2023-07-09T00:27:55;97521.97;;;23.04;55.28
71917;BME280;59793;46.506;6.674;2023-07-09T00:30:21;97515.84;;;22.80;56.39
71917;BME280;59793;46.506;6.674;2023-07-09T00:32:47;97514.56;;;22.64;56.91
71917;BME280;59793;46.506;6.674;2023-07-09T00:35:13;97522.66;;;22.61;57.18
71917;BME280;59793;46.506;6.674;2023-07-09T00:37:41;97525.13;;;22.52;57.59
71917;BME280;59793;46.506;6.674;2023-07-09T00:40:20;97520.69;;;22.41;58.05
71917;BME280;59793;46.506;6.674;2023-07-09T00:42:46;97523.44;;;22.38;57.66
71917;BME280;59793;46.506;6.674;2023-07-09T00:45:17;97525.25;;;22.45;56.98
71917;BME280;59793;46.506;6.674;2023-07-09T00:50:21;97526.06;;;22.41;57.15
71917;BME280;59793;46.506;6.674;2023-07-09T00:55:19;97543.13;;;22.55;57.03
71917;BME280;59793;46.506;6.674;2023-07-09T00:57:46;97541.03;;;22.66;56.69
71917;BME280;59793;46.506;6.674;2023-07-09T01:00:21;97543.09;;;22.78;56.53
71917;BME280;59793;46.506;6.674;2023-07-09T01:02:46;97545.34;;;22.83;56.74
71917;BME280;59793;46.506;6.674;2023-07-09T01:05:13;97547.91;;;22.90;56.97
71917;BME280;59793;46.506;6.674;2023-07-09T01:07:42;97549.91;;;22.86;57.25
71917;BME280;59793;46.506;6.674;2023-07-09T01:10:10;97539.81;;;22.94;56.83
71917;BME280;59793;46.506;6.674;2023-07-09T01:12:36;97548.84;;;23.04;56.82
71917;BME280;59793;46.506;6.674;2023-07-09T01:15:02;97541.91;;;23.06;56.93
71917;BME280;59793;46.506;6.674;2023-07-09T01:17:27;97534.59;;;23.07;57.53
71917;BME280;59793;46.506;6.674;2023-07-09T01:19:53;97542.28;;;22.81;58.16
71917;BME280;59793;46.506;6.674;2023-07-09T01:22:20;97543.22;;;22.71;58.88
71917;BME280;59793;46.506;6.674;2023-07-09T01:27:41;97540.38;;;22.58;58.73
71917;BME280;59793;46.506;6.674;2023-07-09T01:30:10;97539.25;;;22.56;58.87
71917;BME280;59793;46.506;6.674;2023-07-09T01:32:36;97535.22;;;22.67;58.92
71917;BME280;59793;46.506;6.674;2023-07-09T01:35:02;97544.97;;;22.81;58.81
71917;BME280;59793;46.506;6.674;2023-07-09T01:37:33;97548.72;;;22.87;58.24
71917;BME280;59793;46.506;6.674;2023-07-09T01:39:59;97552.94;;;22.88;58.67
71917;BME280;59793;46.506;6.674;2023-07-09T01:42:25;97554.44;;;22.89;58.54
71917;BME280;59793;46.506;6.674;2023-07-09T01:44:52;97549.03;;;22.93;58.41
71917;BME280;59793;46.506;6.674;2023-07-09T01:47:18;97551.75;;;22.89;58.00
71917;BME280;59793;46.506;6.674;2023-07-09T01:49:44;97544.03;;;22.68;57.33
71917;BME280;59793;46.506;6.674;2023-07-09T01:52:12;97547.25;;;22.59;56.78
71917;BME280;59793;46.506;6.674;2023-07-09T01:54:38;97555.72;;;22.58;56.37
71917;BME280;59793;46.506;6.674;2023-07-09T01:57:20;97553.03;;;22.58;56.66
71917;BME280;59793;46.506;6.674;2023-07-09T01:59:48;97553.50;;;22.53;56.84
71917;BME280;59793;46.506;6.674;2023-07-09T02:02:13;97547.59;;;22.61;56.79
71917;BME280;59793;46.506;6.674;2023-07-09T02:04:43;97551.81;;;22.62;56.27
71917;BME280;59793;46.506;6.674;2023-07-09T02:07:09;97549.41;;;22.68;56.16
71917;BME280;59793;46.506;6.674;2023-07-09T02:09:34;97552.41;;;22.74;55.36
71917;BME280;59793;46.506;6.674;2023-07-09T02:11:59;97558.78;;;22.83;54.79
71917;BME280;59793;46.506;6.674;2023-07-09T02:14:24;97560.13;;;22.95;53.83
71917;BME280;59793;46.506;6.674;2023-07-09T02:16:50;97559.66;;;23.00;53.49
71917;BME280;59793;46.506;6.674;2023-07-09T02:19:15;97572.28;;;23.03;53.27
71917;BME280;59793;46.506;6.674;2023-07-09T02:21:40;97568.13;;;22.99;53.78
71917;BME280;59793;46.506;6.674;2023-07-09T02:24:05;97563.06;;;23.04;53.80
71917;BME280;59793;46.506;6.674;2023-07-09T02:26:31;97564.16;;;23.07;53.70
71917;BME280;59793;46.506;6.674;2023-07-09T02:28:56;97568.84;;;23.03;53.99
71917;BME280;59793;46.506;6.674;2023-07-09T02:31:21;97565.09;;;22.97;54.61
71917;BME280;59793;46.506;6.674;2023-07-09T02:33:46;97567.78;;;22.97;54.41
71917;BME280;59793;46.506;6.674;2023-07-09T02:36:11;97565.94;;;22.94;54.07
71917;BME280;59793;46.506;6.674;2023-07-09T02:38:37;97565.66;;;22.84;54.58
71917;BME280;59793;46.506;6.674;2023-07-09T02:41:02;97565.84;;;22.74;54.38
71917;BME280;59793;46.506;6.674;2023-07-09T02:43:27;97562.84;;;22.68;54.19
71917;BME280;59793;46.506;6.674;2023-07-09T02:45:52;97569.50;;;22.60;54.24
71917;BME280;59793;46.506;6.674;2023-07-09T02:48:18;97560.81;;;22.52;54.85
71917;BME280;59793;46.506;6.674;2023-07-09T02:50:44;97563.31;;;22.63;54.91
71917;BME280;59793;46.506;6.674;2023-07-09T02:53:09;97562.38;;;22.50;55.41
71917;BME280;59793;46.506;6.674;2023-07-09T02:55:34;97570.03;;;22.51;55.11
71917;BME280;59793;46.506;6.674;2023-07-09T02:58:00;97562.25;;;22.57;54.76
71917;BME280;59793;46.506;6.674;2023-07-09T03:00:25;97577.19;;;22.58;54.25
71917;BME280;59793;46.506;6.674;2023-07-09T03:02:50;97574.19;;;22.56;54.07
71917;BME280;59793;46.506;6.674;2023-07-09T03:05:16;97582.50;;;22.61;53.88
71917;BME280;59793;46.506;6.674;2023-07-09T03:07:41;97581.16;;;22.50;54.29
71917;BME280;59793;46.506;6.674;2023-07-09T03:10:06;97586.44;;;22.57;54.00
71917;BME280;59793;46.506;6.674;2023-07-09T03:12:31;97583.00;;;22.56;53.88
71917;BME280;59793;46.506;6.674;2023-07-09T03:14:57;97578.09;;;22.51;53.89
71917;BME280;59793;46.506;6.674;2023-07-09T03:17:22;97579.66;;;22.49;53.71
71917;BME280;59793;46.506;6.674;2023-07-09T03:19:47;97577.25;;;22.54;53.75
71917;BME280;59793;46.506;6.674;2023-07-09T03:22:12;97586.09;;;22.55;53.56
71917;BME280;59793;46.506;6.674;2023-07-09T03:24:37;97589.13;;;22.57;53.39
71917;BME280;59793;46.506;6.674;2023-07-09T03:27:03;97581.06;;;22.57;52.95
71917;BME280;59793;46.506;6.674;2023-07-09T03:29:28;97581.47;;;22.55;53.11
71917;BME280;59793;46.506;6.674;2023-07-09T03:31:53;97582.47;;;22.65;53.47
71917;BME280;59793;46.506;6.674;2023-07-09T03:34:19;97581.66;;;22.68;53.55
71917;BME280;59793;46.506;6.674;2023-07-09T03:36:44;97573.94;;;22.70;52.87
71917;BME280;59793;46.506;6.674;2023-07-09T03:39:11;97570.47;;;22.73;53.55
71917;BME280;59793;46.506;6.674;2023-07-09T03:41:36;97574.06;;;22.63;53.51
71917;BME280;59793;46.506;6.674;2023-07-09T03:44:01;97589.75;;;22.64;53.19
71917;BME280;59793;46.506;6.674;2023-07-09T03:46:27;97584.69;;;22.70;53.68
71917;BME280;59793;46.506;6.674;2023-07-09T03:48:52;97597.13;;;22.60;53.69
71917;BME280;59793;46.506;6.674;2023-07-09T03:51:17;97597.44;;;22.66;52.74
71917;BME280;59793;46.506;6.674;2023-07-09T03:53:43;97608.50;;;22.68;52.89
71917;BME280;59793;46.506;6.674;2023-07-09T03:56:08;97602.31;;;22.71;55.08
71917;BME280;59793;46.506;6.674;2023-07-09T03:58:35;97602.31;;;22.71;57.23
71917;BME280;59793;46.506;6.674;2023-07-09T04:01:00;97600.44;;;22.68;58.46
71917;BME280;59793;46.506;6.674;2023-07-09T04:03:25;97606.25;;;22.66;59.56
71917;BME280;59793;46.506;6.674;2023-07-09T04:05:51;97603.94;;;22.69;60.12
71917;BME280;59793;46.506;6.674;2023-07-09T04:08:16;97611.94;;;22.72;60.58
71917;BME280;59793;46.506;6.674;2023-07-09T04:10:42;97616.94;;;22.70;61.28
71917;BME280;59793;46.506;6.674;2023-07-09T04:13:07;97612.44;;;22.63;62.45
71917;BME280;59793;46.506;6.674;2023-07-09T04:15:32;97618.50;;;22.67;63.09
71917;BME280;59793;46.506;6.674;2023-07-09T04:17:58;97609.31;;;22.65;62.41
71917;BME280;59793;46.506;6.674;2023-07-09T04:20:23;97611.56;;;22.43;61.72
71917;BME280;59793;46.506;6.674;2023-07-09T04:22:48;97605.25;;;22.30;61.25
71917;BME280;59793;46.506;6.674;2023-07-09T04:25:14;97603.91;;;22.14;61.44
71917;BME280;59793;46.506;6.674;2023-07-09T04:27:39;97601.59;;;22.16;61.04
71917;BME280;59793;46.506;6.674;2023-07-09T04:30:05;97604.28;;;22.13;60.99
71917;BME280;59793;46.506;6.674;2023-07-09T04:32:31;97611.63;;;22.09;61.02
71917;BME280;59793;46.506;6.674;2023-07-09T04:34:56;97605.44;;;22.12;61.15
71917;BME280;59793;46.506;6.674;2023-07-09T04:37:22;97599.19;;;22.22;61.49
71917;BME280;59793;46.506;6.674;2023-07-09T04:39:47;97608.31;;;22.28;61.42
71917;BME280;59793;46.506;6.674;2023-07-09T04:42:13;97605.91;;;22.37;61.56
71917;BME280;59793;46.506;6.674;2023-07-09T04:44:39;97603.94;;;22.41;61.61
71917;BME280;59793;46.506;6.674;2023-07-09T04:47:04;97603.41;;;22.50;60.40
71917;BME280;59793;46.506;6.674;2023-07-09T04:49:30;97603.41;;;22.50;59.51
71917;BME280;59793;46.506;6.674;2023-07-09T04:51:55;97604.88;;;22.55;58.91
71917;BME280;59793;46.506;6.674;2023-07-09T04:54:21;97601.72;;;22.60;58.70
71917;BME280;59793;46.506;6.674;2023-07-09T04:56:47;97604.38;;;22.63;58.64
71917;BME280;59793;46.506;6.674;2023-07-09T04:59:13;97609.25;;;22.72;58.42
71917;BME280;59793;46.506;6.674;2023-07-09T05:01:38;97609.94;;;22.76;56.87
71917;BME280;59793;46.506;6.674;2023-07-09T05:04:04;97605.25;;;22.80;55.93
71917;BME280;59793;46.506;6.674;2023-07-09T05:06:29;97602.09;;;22.85;55.83
71917;BME280;59793;46.506;6.674;2023-07-09T05:08:54;97604.41;;;22.87;55.95
71917;BME280;59793;46.506;6.674;2023-07-09T05:11:19;97605.53;;;22.86;56.82
71917;BME280;59793;46.506;6.674;2023-07-09T05:13:44;97597.00;;;22.95;57.22
71917;BME280;59793;46.506;6.674;2023-07-09T05:16:10;97606.88;;;23.01;57.53
71917;BME280;59793;46.506;6.674;2023-07-09T05:18:35;97606.81;;;23.05;57.51
71917;BME280;59793;46.506;6.674;2023-07-09T05:21:01;97605.06;;;23.18;56.45
71917;BME280;59793;46.506;6.674;2023-07-09T05:23:26;97606.47;;;23.26;56.97
71917;BME280;59793;46.506;6.674;2023-07-09T05:25:58;97604.88;;;23.29;57.00
71917;BME280;59793;46.506;6.674;2023-07-09T05:28:23;97608.53;;;23.38;56.88
71917;BME280;59793;46.506;6.674;2023-07-09T05:30:48;97609.09;;;23.50;56.67
71917;BME280;59793;46.506;6.674;2023-07-09T05:33:14;97603.94;;;23.59;56.27
71917;BME280;59793;46.506;6.674;2023-07-09T05:35:41;97607.25;;;23.67;56.21
71917;BME280;59793;46.506;6.674;2023-07-09T05:38:07;97605.19;;;23.74;56.19
71917;BME280;59793;46.506;6.674;2023-07-09T05:40:32;97608.09;;;23.83;55.70
71917;BME280;59793;46.506;6.674;2023-07-09T05:42:57;97617.22;;;23.90;55.36
71917;BME280;59793;46.506;6.674;2023-07-09T05:45:23;97617.22;;;23.90;54.73
71917;BME280;59793;46.506;6.674;2023-07-09T05:47:48;97608.63;;;23.95;54.67
71917;BME280;59793;46.506;6.674;2023-07-09T05:50:13;97617.00;;;24.00;54.51
71917;BME280;59793;46.506;6.674;2023-07-09T05:52:38;97611.88;;;24.06;54.14
71917;BME280;59793;46.506;6.674;2023-07-09T05:55:04;97601.16;;;24.22;53.93
71917;BME280;59793;46.506;6.674;2023-07-09T05:57:29;97606.97;;;24.37;53.14
71917;BME280;59793;46.506;6.674;2023-07-09T05:59:55;97593.13;;;24.55;53.19
71917;BME280;59793;46.506;6.674;2023-07-09T06:02:20;97592.56;;;24.64;52.38
71917;BME280;59793;46.506;6.674;2023-07-09T06:04:46;97591.66;;;24.70;52.22
71917;BME280;59793;46.506;6.674;2023-07-09T06:07:14;97595.25;;;24.80;52.95
71917;BME280;59793;46.506;6.674;2023-07-09T06:09:39;97592.81;;;24.86;53.72
71917;BME280;59793;46.506;6.674;2023-07-09T06:12:04;97595.16;;;24.84;52.45
71917;BME280;59793;46.506;6.674;2023-07-09T06:14:30;97600.53;;;25.00;52.89
71917;BME280;59793;46.506;6.674;2023-07-09T06:16:56;97603.91;;;25.04;52.75
71917;BME280;59793;46.506;6.674;2023-07-09T06:19:21;97597.88;;;25.16;53.78
71917;BME280;59793;46.506;6.674;2023-07-09T06:21:46;97599.44;;;25.30;52.80
71917;BME280;59793;46.506;6.674;2023-07-09T06:24:11;97590.28;;;25.40;52.63
71917;BME280;59793;46.506;6.674;2023-07-09T06:26:36;97592.69;;;25.51;53.08
71917;BME280;59793;46.506;6.674;2023-07-09T06:29:02;97600.38;;;25.52;50.84
71917;BME280;59793;46.506;6.674;2023-07-09T06:31:27;97600.09;;;25.63;51.98
71917;BME280;59793;46.506;6.674;2023-07-09T06:33:52;97595.06;;;25.78;52.16
71917;BME280;59793;46.506;6.674;2023-07-09T06:36:18;97598.78;;;25.84;51.11
71917;BME280;59793;46.506;6.674;2023-07-09T06:38:43;97606.00;;;25.58;48.81
71917;BME280;59793;46.506;6.674;2023-07-09T06:41:09;97599.63;;;25.52;48.59
71917;BME280;59793;46.506;6.674;2023-07-09T06:43:34;97590.59;;;25.71;48.05
71917;BME280;59793;46.506;6.674;2023-07-09T06:46:03;97599.78;;;25.74;48.52
71917;BME280;59793;46.506;6.674;2023-07-09T06:48:29;97590.50;;;25.75;48.53
71917;BME280;59793;46.506;6.674;2023-07-09T06:50:55;97593.47;;;25.81;48.55
71917;BME280;59793;46.506;6.674;2023-07-09T06:53:21;97597.28;;;25.83;48.97
71917;BME280;59793;46.506;6.674;2023-07-09T06:55:47;97601.41;;;25.71;49.77
71917;BME280;59793;46.506;6.674;2023-07-09T06:58:14;97599.84;;;25.28;50.79
71917;BME280;59793;46.506;6.674;2023-07-09T07:00:39;97605.53;;;25.18;51.93
71917;BME280;59793;46.506;6.674;2023-07-09T07:03:05;97612.31;;;25.22;51.81
71917;BME280;59793;46.506;6.674;2023-07-09T07:05:30;97608.88;;;25.22;51.16
71917;BME280;59793;46.506;6.674;2023-07-09T07:07:56;97611.47;;;25.25;51.60
71917;BME280;59793;46.506;6.674;2023-07-09T07:10:21;97615.53;;;25.34;52.06
71917;BME280;59793;46.506;6.674;2023-07-09T07:12:47;97615.84;;;25.36;51.78
71917;BME280;59793;46.506;6.674;2023-07-09T07:15:13;97612.75;;;25.21;52.60
71917;BME280;59793;46.506;6.674;2023-07-09T07:17:39;97619.06;;;25.31;52.92
71917;BME280;59793;46.506;6.674;2023-07-09T07:20:05;97616.78;;;25.58;51.70
71917;BME280;59793;46.506;6.674;2023-07-09T07:22:30;97614.59;;;25.69;52.06
71917;BME280;59793;46.506;6.674;2023-07-09T07:24:55;97616.75;;;25.74;51.92
71917;BME280;59793;46.506;6.674;2023-07-09T07:27:21;97624.84;;;25.74;52.14
71917;BME280;59793;46.506;6.674;2023-07-09T07:29:46;97623.09;;;25.68;51.94
71917;BME280;59793;46.506;6.674;2023-07-09T07:32:11;97620.63;;;25.73;52.69
71917;BME280;59793;46.506;6.674;2023-07-09T07:34:36;97622.25;;;25.71;52.63
71917;BME280;59793;46.506;6.674;2023-07-09T07:37:02;97625.75;;;25.55;53.30
71917;BME280;59793;46.506;6.674;2023-07-09T07:39:27;97622.34;;;25.67;54.53
71917;BME280;59793;46.506;6.674;2023-07-09T07:41:52;97624.75;;;25.49;54.07
71917;BME280;59793;46.506;6.674;2023-07-09T07:44:18;97631.16;;;25.55;52.63
71917;BME280;59793;46.506;6.674;2023-07-09T07:46:43;97628.28;;;25.62;52.92
71917;BME280;59793;46.506;6.674;2023-07-09T07:49:09;97627.53;;;25.74;51.38
71917;BME280;59793;46.506;6.674;2023-07-09T07:51:35;97624.16;;;25.87;50.34
71917;BME280;59793;46.506;6.674;2023-07-09T07:54:00;97621.91;;;25.69;51.23
71917;BME280;59793;46.506;6.674;2023-07-09T07:56:25;97618.66;;;25.90;50.21
71917;BME280;59793;46.506;6.674;2023-07-09T07:58:51;97618.03;;;25.99;49.54
71917;BME280;59793;46.506;6.674;2023-07-09T08:01:16;97612.06;;;26.04;47.73
71917;BME280;59793;46.506;6.674;2023-07-09T08:03:41;97607.03;;;26.19;47.79
71917;BME280;59793;46.506;6.674;2023-07-09T08:06:06;97597.75;;;26.33;47.20
71917;BME280;59793;46.506;6.674;2023-07-09T08:08:32;97591.91;;;26.34;44.68
71917;BME280;59793;46.506;6.674;2023-07-09T08:11:01;97601.09;;;26.37;42.75
71917;BME280;59793;46.506;6.674;2023-07-09T08:13:29;97598.69;;;26.13;44.73
71917;BME280;59793;46.506;6.674;2023-07-09T08:15:54;97602.19;;;26.27;44.04
71917;BME280;59793;46.506;6.674;2023-07-09T08:18:20;97601.41;;;26.39;46.47
71917;BME280;59793;46.506;6.674;2023-07-09T08:20:45;97603.81;;;26.37;47.29
71917;BME280;59793;46.506;6.674;2023-07-09T08:23:10;97609.28;;;26.20;45.62
71917;BME280;59793;46.506;6.674;2023-07-09T08:25:35;97607.66;;;26.10;43.89
71917;BME280;59793;46.506;6.674;2023-07-09T08:28:01;97589.63;;;26.07;44.19
71917;BME280;59793;46.506;6.674;2023-07-09T08:30:26;97610.16;;;26.43;44.84
71917;BME280;59793;46.506;6.674;2023-07-09T08:32:51;97612.66;;;26.50;46.16
71917;BME280;59793;46.506;6.674;2023-07-09T08:35:16;97606.75;;;26.68;44.92
71917;BME280;59793;46.506;6.674;2023-07-09T08:37:42;97602.81;;;26.82;43.75
71917;BME280;59793;46.506;6.674;2023-07-09T08:40:10;97606.00;;;27.02;44.07
71917;BME280;59793;46.506;6.674;2023-07-09T08:42:39;97605.03;;;27.09;42.36
71917;BME280;59793;46.506;6.674;2023-07-09T08:45:11;97600.78;;;27.21;43.60
71917;BME280;59793;46.506;6.674;2023-07-09T08:50:09;97593.97;;;26.68;41.49
71917;BME280;59793;46.506;6.674;2023-07-09T08:52:36;97591.56;;;26.70;43.82
71917;BME280;59793;46.506;6.674;2023-07-09T08:55:21;97600.09;;;26.82;43.26
71917;BME280;59793;46.506;6.674;2023-07-09T08:58:30;97600.28;;;27.00;42.15
71917;BME280;59793;46.506;6.674;2023-07-09T09:00:53;97594.44;;;27.02;43.32
71917;BME280;59793;46.506;6.674;2023-07-09T09:03:30;97597.38;;;26.94;44.36
71917;BME280;59793;46.506;6.674;2023-07-09T09:06:00;97587.00;;;26.93;40.43
71917;BME280;59793;46.506;6.674;2023-07-09T09:08:47;97587.25;;;26.86;42.83
71917;BME280;59793;46.506;6.674;2023-07-09T09:13:41;97577.16;;;27.34;40.05
71917;BME280;59793;46.506;6.674;2023-07-09T09:16:14;97576.47;;;27.43;38.86
71917;BME280;59793;46.506;6.674;2023-07-09T09:18:42;97579.56;;;27.32;38.17
71917;BME280;59793;46.506;6.674;2023-07-09T09:23:38;97575.78;;;27.95;38.96
71917;BME280;59793;46.506;6.674;2023-07-09T09:26:04;97571.41;;;27.98;38.49
71917;BME280;59793;46.506;6.674;2023-07-09T09:28:37;97571.59;;;28.03;38.83
71917;BME280;59793;46.506;6.674;2023-07-09T09:31:02;97572.75;;;27.93;39.36
71917;BME280;59793;46.506;6.674;2023-07-09T09:33:35;97562.94;;;27.64;41.49
71917;BME280;59793;46.506;6.674;2023-07-09T09:36:02;97564.25;;;27.82;41.61
71917;BME280;59793;46.506;6.674;2023-07-09T09:38:28;97555.25;;;27.85;41.85
71917;BME280;59793;46.506;6.674;2023-07-09T09:40:59;97561.22;;;27.80;42.29
71917;BME280;59793;46.506;6.674;2023-07-09T09:43:24;97563.13;;;28.01;40.42
71917;BME280;59793;46.506;6.674;2023-07-09T09:45:51;97561.00;;;28.27;40.04
71917;BME280;59793;46.506;6.674;2023-07-09T09:48:18;97552.88;;;28.36;37.04
71917;BME280;59793;46.506;6.674;2023-07-09T09:50:44;97550.44;;;28.29;40.44
71917;BME280;59793;46.506;6.674;2023-07-09T09:53:12;97549.22;;;28.62;37.72
71917;BME280;59793;46.506;6.674;2023-07-09T09:55:42;97543.34;;;28.72;39.78
71917;BME280;59793;46.506;6.674;2023-07-09T09:58:10;97556.63;;;28.89;39.57
71917;BME280;59793;46.506;6.674;2023-07-09T10:00:36;97562.75;;;28.52;38.58
71917;BME280;59793;46.506;6.674;2023-07-09T10:03:02;97553.72;;;28.55;38.96
71917;BME280;59793;46.506;6.674;2023-07-09T10:05:32;97546.19;;;28.50;39.05
71917;BME280;59793;46.506;6.674;2023-07-09T10:07:59;97556.88;;;28.45;39.24
71917;BME280;59793;46.506;6.674;2023-07-09T10:10:27;97564.91;;;28.76;37.53
71917;BME280;59793;46.506;6.674;2023-07-09T10:13:17;97555.00;;;29.00;40.26
71917;BME280;59793;46.506;6.674;2023-07-09T10:15:48;97548.97;;;28.87;38.30
71917;BME280;59793;46.506;6.674;2023-07-09T10:20:45;97552.81;;;28.49;41.45
71917;BME280;59793;46.506;6.674;2023-07-09T10:25:42;97554.47;;;28.16;39.94
71917;BME280;59793;46.506;6.674;2023-07-09T10:33:31;97558.22;;;28.49;39.51
71917;BME280;59793;46.506;6.674;2023-07-09T10:36:11;97563.66;;;28.49;40.69
71917;BME280;59793;46.506;6.674;2023-07-09T10:38:55;97567.59;;;28.67;40.83
71917;BME280;59793;46.506;6.674;2023-07-09T10:41:22;97563.41;;;28.93;38.79
71917;BME280;59793;46.506;6.674;2023-07-09T10:43:50;97558.16;;;29.45;37.86
71917;BME280;59793;46.506;6.674;2023-07-09T10:46:19;97556.84;;;29.13;36.95
71917;BME280;59793;46.506;6.674;2023-07-09T10:48:47;97552.88;;;29.32;38.62
71917;BME280;59793;46.506;6.674;2023-07-09T10:51:17;97546.22;;;29.70;36.59
71917;BME280;59793;46.506;6.674;2023-07-09T10:53:45;97553.75;;;29.75;39.30
71917;BME280;59793;46.506;6.674;2023-07-09T10:59:24;97553.41;;;29.82;37.86
71917;BME280;59793;46.506;6.674;2023-07-09T11:01:45;97548.56;;;29.95;38.79
71917;BME280;59793;46.506;6.674;2023-07-09T11:04:15;97542.03;;;30.02;38.19
71917;BME280;59793;46.506;6.674;2023-07-09T11:06:46;97538.66;;;30.16;35.31
71917;BME280;59793;46.506;6.674;2023-07-09T11:09:24;97536.84;;;30.22;35.12
71917;BME280;59793;46.506;6.674;2023-07-09T11:11:53;97542.72;;;30.54;34.51
71917;BME280;59793;46.506;6.674;2023-07-09T11:14:33;97537.31;;;30.45;32.36
71917;BME280;59793;46.506;6.674;2023-07-09T11:17:00;97531.97;;;30.84;32.74
71917;BME280;59793;46.506;6.674;2023-07-09T11:19:26;97537.47;;;30.75;31.56
71917;BME280;59793;46.506;6.674;2023-07-09T11:27:20;97524.09;;;30.62;32.95
71917;BME280;59793;46.506;6.674;2023-07-09T11:29:46;97531.38;;;30.56;33.86
71917;BME280;59793;46.506;6.674;2023-07-09T11:32:17;97530.00;;;30.84;33.49
71917;BME280;59793;46.506;6.674;2023-07-09T11:34:46;97523.19;;;31.04;31.60
71917;BME280;59793;46.506;6.674;2023-07-09T11:37:12;97523.16;;;31.28;33.08
71917;BME280;59793;46.506;6.674;2023-07-09T11:42:03;97531.38;;;31.04;28.83
71917;BME280;59793;46.506;6.674;2023-07-09T11:44:30;97519.66;;;31.27;30.78
71917;BME280;59793;46.506;6.674;2023-07-09T11:49:45;97516.31;;;31.62;29.71
71917;BME280;59793;46.506;6.674;2023-07-09T11:52:11;97512.69;;;30.97;29.74
71917;BME280;59793;46.506;6.674;2023-07-09T11:54:38;97511.84;;;31.05;30.02
71917;BME280;59793;46.506;6.674;2023-07-09T11:57:05;97513.31;;;30.91;29.51
71917;BME280;59793;46.506;6.674;2023-07-09T11:59:38;97512.28;;;30.65;28.14
71917;BME280;59793;46.506;6.674;2023-07-09T12:02:04;97519.25;;;31.05;29.82
71917;BME280;59793;46.506;6.674;2023-07-09T12:04:33;97509.38;;;31.31;28.93
71917;BME280;59793;46.506;6.674;2023-07-09T12:07:00;97516.22;;;31.41;30.49
71917;BME280;59793;46.506;6.674;2023-07-09T12:09:30;97507.56;;;31.28;28.26
71917;BME280;59793;46.506;6.674;2023-07-09T12:11:56;97506.06;;;31.72;27.62
71917;BME280;59793;46.506;6.674;2023-07-09T12:14:22;97500.66;;;32.07;29.97
71917;BME280;59793;46.506;6.674;2023-07-09T12:16:52;97499.97;;;32.47;28.99
71917;BME280;59793;46.506;6.674;2023-07-09T12:19:19;97493.03;;;32.67;26.22
71917;BME280;59793;46.506;6.674;2023-07-09T12:21:45;97489.47;;;32.60;25.73
71917;BME280;59793;46.506;6.674;2023-07-09T12:26:42;97488.06;;;32.45;25.83
71917;BME280;59793;46.506;6.674;2023-07-09T12:29:08;97482.53;;;32.59;26.81
71917;BME280;59793;46.506;6.674;2023-07-09T12:31:34;97480.22;;;32.52;26.56
71917;BME280;59793;46.506;6.674;2023-07-09T12:33:59;97477.53;;;32.58;26.84
71917;BME280;59793;46.506;6.674;2023-07-09T12:36:25;97481.06;;;32.84;25.85
71917;BME280;59793;46.506;6.674;2023-07-09T12:38:52;97478.47;;;32.34;25.53
71917;BME280;59793;46.506;6.674;2023-07-09T12:41:23;97479.97;;;32.35;27.26
71917;BME280;59793;46.506;6.674;2023-07-09T12:43:50;97470.53;;;32.51;26.21
71917;BME280;59793;46.506;6.674;2023-07-09T12:46:16;97471.81;;;32.76;26.41
71917;BME280;59793;46.506;6.674;2023-07-09T12:48:42;97478.88;;;32.89;26.37
71917;BME280;59793;46.506;6.674;2023-07-09T12:51:08;97470.34;;;33.01;25.19
71917;BME280;59793;46.506;6.674;2023-07-09T12:53:35;97463.63;;;32.76;26.63
71917;BME280;59793;46.506;6.674;2023-07-09T12:56:01;97459.75;;;32.89;25.78
71917;BME280;59793;46.506;6.674;2023-07-09T12:58:31;97456.06;;;32.92;26.05
71917;BME280;59793;46.506;6.674;2023-07-09T13:00:57;97448.88;;;33.15;26.34
71917;BME280;59793;46.506;6.674;2023-07-09T13:03:30;97440.19;;;33.16;26.12
71917;BME280;59793;46.506;6.674;2023-07-09T13:05:56;97443.38;;;33.41;25.60
71917;BME280;59793;46.506;6.674;2023-07-09T13:08:23;97434.44;;;33.40;27.73
71917;BME280;59793;46.506;6.674;2023-07-09T13:10:49;97432.69;;;33.37;26.66
71917;BME280;59793;46.506;6.674;2023-07-09T13:13:17;97435.66;;;33.39;26.47
71917;BME280;59793;46.506;6.674;2023-07-09T13:15:43;97437.13;;;33.35;27.07
71917;BME280;59793;46.506;6.674;2023-07-09T13:18:13;97422.81;;;33.83;24.80
71917;BME280;59793;46.506;6.674;2023-07-09T13:20:39;97426.19;;;33.66;25.83
71917;BME280;59793;46.506;6.674;2023-07-09T13:23:26;97418.94;;;33.58;26.16
71917;BME280;59793;46.506;6.674;2023-07-09T13:25:51;97412.38;;;33.12;29.41
71917;BME280;59793;46.506;6.674;2023-07-09T13:30:52;97418.63;;;33.18;27.56
71917;BME280;59793;46.506;6.674;2023-07-09T13:33:18;97420.59;;;32.66;31.14
71917;BME280;59793;46.506;6.674;2023-07-09T13:35:44;97412.50;;;32.77;30.07
71917;BME280;59793;46.506;6.674;2023-07-09T13:38:16;97405.13;;;33.41;30.22
71917;BME280;59793;46.506;6.674;2023-07-09T13:40:56;97410.53;;;33.61;28.79
71917;BME280;59793;46.506;6.674;2023-07-09T13:43:32;97403.88;;;33.68;32.12